Time;durP1;ratioP1;P1;durP2;ratioP2;P2;SDS_P1;SDS_P2;PMS_P1;PMS_P2;Temp;Humidity;BMP_temperature;BMP_pressure;BME280_temperature;BME280_humidity;BME280_pressure;Samples;Min_cycle;Max_cycle;Signal;HPM_P1;HPM_P2
2022/12/20 00:00:04;;;;;;;11.27;7.68;;;-0.80;99.90;;;;;;5115917;28;20486;-82
2022/12/20 00:02:30;;;;;;;12.50;8.45;;;-0.80;99.90;;;;;;5085851;28;20023;-78
2022/12/20 00:04:55;;;;;;;9.93;7.18;;;-0.80;99.90;;;;;;5113327;28;20042;-80
2022/12/20 00:07:21;;;;;;;15.90;8.07;;;-0.80;99.90;;;;;;5122048;28;20023;-79
2022/12/20 00:09:47;;;;;;;11.57;8.02;;;-0.90;99.90;;;;;;5124812;28;20030;-80
2022/12/20 00:12:13;;;;;;;13.45;7.53;;;-0.90;99.90;;;;;;5095692;28;20365;-81
2022/12/20 00:14:39;;;;;;;11.60;8.40;;;-0.90;99.90;;;;;;5112306;28;20038;-81
2022/12/20 00:17:04;;;;;;;12.20;7.85;;;-1.00;99.90;;;;;;5115354;28;20072;-81
2022/12/20 00:19:30;;;;;;;13.32;7.13;;;-1.00;99.90;;;;;;5114213;28;20479;-80
2022/12/20 00:21:56;;;;;;;9.93;6.85;;;-1.00;99.90;;;;;;5115589;28;20024;-80
2022/12/20 00:24:22;;;;;;;12.90;8.73;;;-1.00;99.90;;;;;;5121044;28;20099;-80
2022/12/20 00:26:48;;;;;;;11.18;7.15;;;-1.00;99.90;;;;;;5117356;28;20488;-82
2022/12/20 00:29:13;;;;;;;11.30;7.07;;;-1.00;99.90;;;;;;5114931;28;20049;-80
2022/12/20 00:31:39;;;;;;;13.77;8.02;;;-1.00;99.90;;;;;;5116107;28;20412;-81
2022/12/20 00:34:05;;;;;;;13.52;7.63;;;-1.00;99.90;;;;;;5112287;28;20051;-83
2022/12/20 00:36:32;;;;;;;14.68;7.60;;;-1.00;99.90;;;;;;5096413;28;20023;-82
2022/12/20 00:38:59;;;;;;;10.77;7.77;;;-1.00;99.90;;;;;;5114564;28;20080;-81
2022/12/20 00:41:31;;;;;;;16.40;8.45;;;-1.00;99.90;;;;;;5114309;28;20107;-79
2022/12/20 00:43:57;;;;;;;12.00;7.65;;;-1.00;99.90;;;;;;5099714;28;20275;-81
2022/12/20 00:46:24;;;;;;;11.10;6.78;;;-1.00;99.90;;;;;;5114441;28;20027;-80
2022/12/20 00:48:51;;;;;;;11.88;8.45;;;-1.00;99.90;;;;;;5114587;28;20023;-81
2022/12/20 00:51:22;;;;;;;13.13;7.40;;;-1.00;99.90;;;;;;5117082;28;20024;-82
2022/12/20 00:53:48;;;;;;;9.82;6.10;;;-1.00;99.90;;;;;;5114272;28;20102;-82
2022/12/20 00:56:14;;;;;;;11.27;7.00;;;-1.00;99.90;;;;;;5114159;28;20038;-81
2022/12/20 00:58:42;;;;;;;9.63;6.40;;;-1.00;99.90;;;;;;5100911;28;20016;-81
2022/12/20 01:01:27;;;;;;;11.02;5.13;;;-1.00;99.90;;;;;;5094642;28;20019;-82
2022/12/20 01:03:53;;;;;;;7.57;6.60;;;-1.00;99.90;;;;;;5101655;28;20410;-79
2022/12/20 01:06:20;;;;;;;9.98;6.55;;;-1.00;99.90;;;;;;5108564;28;20024;-79
2022/12/20 01:08:46;;;;;;;8.43;5.05;;;-1.00;99.90;;;;;;5105247;28;20020;-79
2022/12/20 01:11:14;;;;;;;8.40;5.85;;;-1.10;99.90;;;;;;5097977;28;20028;-80
2022/12/20 01:13:43;;;;;;;8.50;5.38;;;-1.00;99.90;;;;;;5068228;28;20024;-80
2022/12/20 01:16:14;;;;;;;9.77;5.07;;;-1.00;99.90;;;;;;5107181;28;20032;-81
2022/12/20 01:18:40;;;;;;;9.10;5.25;;;-1.10;99.90;;;;;;5113560;28;20419;-80
2022/12/20 01:21:12;;;;;;;6.75;5.32;;;-1.10;99.90;;;;;;5113464;28;20055;-81
2022/12/20 01:23:39;;;;;;;9.98;5.80;;;-1.10;99.90;;;;;;5116259;28;20123;-79
2022/12/20 01:26:09;;;;;;;10.18;5.85;;;-1.10;99.90;;;;;;5113259;28;20042;-79
2022/12/20 01:28:37;;;;;;;11.70;5.50;;;-1.10;99.90;;;;;;5107012;28;20380;-80
2022/12/20 01:31:08;;;;;;;7.72;5.40;;;-1.10;99.90;;;;;;5106478;28;20392;-80
2022/12/20 01:33:34;;;;;;;8.52;4.88;;;-1.10;99.90;;;;;;5103078;28;20012;-79
2022/12/20 01:36:03;;;;;;;11.05;6.60;;;-1.10;99.90;;;;;;5097314;28;20537;-79
2022/12/20 01:38:29;;;;;;;8.82;5.72;;;-1.20;99.90;;;;;;5094739;28;20019;-79
2022/12/20 01:40:59;;;;;;;9.65;6.05;;;-1.20;99.90;;;;;;5094945;28;20396;-81
2022/12/20 01:43:52;;;;;;;8.52;6.32;;;-1.20;99.90;;;;;;5112984;28;20148;-79
2022/12/20 01:46:20;;;;;;;9.30;5.53;;;-1.20;99.90;;;;;;5113096;28;20106;-79
2022/12/20 01:48:55;;;;;;;8.02;5.78;;;-1.20;99.90;;;;;;5112782;28;20027;-80
2022/12/20 01:51:22;;;;;;;9.55;6.63;;;-1.30;99.90;;;;;;5112914;28;20103;-79
2022/12/20 01:53:53;;;;;;;9.80;6.15;;;-1.30;99.90;;;;;;5098125;28;20424;-79
2022/12/20 01:56:19;;;;;;;12.02;7.13;;;-1.30;99.90;;;;;;5093075;28;20368;-80
2022/12/20 01:58:48;;;;;;;13.40;6.43;;;-1.30;99.90;;;;;;5082313;28;20033;-81
2022/12/20 02:01:14;;;;;;;9.18;6.00;;;-1.40;99.90;;;;;;5099474;28;20099;-80
2022/12/20 02:03:41;;;;;;;11.90;7.00;;;-1.40;99.90;;;;;;5107232;28;20043;-80
2022/12/20 02:06:17;;;;;;;6.78;4.88;;;-1.40;99.90;;;;;;5118006;28;20383;-79
2022/12/20 02:08:45;;;;;;;11.82;6.55;;;-1.40;99.90;;;;;;5106660;28;20024;-80
2022/12/20 02:11:35;;;;;;;8.55;6.25;;;-1.40;99.90;;;;;;5103111;28;20035;-81
2022/12/20 02:14:01;;;;;;;7.00;5.53;;;-1.40;99.90;;;;;;5114259;28;20047;-79
2022/12/20 02:16:32;;;;;;;10.55;7.32;;;-1.50;99.90;;;;;;5102275;28;20070;-79
2022/12/20 02:19:10;;;;;;;11.75;6.55;;;-1.50;99.90;;;;;;5112832;28;20416;-81
2022/12/20 02:22:15;;;;;;;10.10;6.68;;;-1.60;99.90;;;;;;5112803;28;20011;-81
2022/12/20 02:24:47;;;;;;;10.98;8.35;;;-1.60;99.90;;;;;;5093832;28;20091;-81
2022/12/20 02:27:18;;;;;;;10.63;6.80;;;-1.60;99.90;;;;;;5112629;28;20472;-80
2022/12/20 02:30:05;;;;;;;13.77;6.85;;;-1.60;99.90;;;;;;5112676;28;20059;-81
2022/12/20 02:32:45;;;;;;;10.80;6.82;;;-1.70;99.90;;;;;;5094435;28;20027;-81
2022/12/20 02:35:14;;;;;;;10.32;6.30;;;-1.70;99.90;;;;;;5114970;28;20023;-80
2022/12/20 02:37:52;;;;;;;13.15;6.88;;;-1.70;99.90;;;;;;5112958;28;20058;-80
2022/12/20 02:40:28;;;;;;;10.45;6.60;;;-1.80;99.90;;;;;;5112608;28;20032;-80
2022/12/20 02:45:14;;;;;;;14.23;7.23;;;-1.80;99.90;;;;;;5115755;28;20498;-80
2022/12/20 02:45:58;;;;;;;14.67;8.03;;;-1.80;99.90;;;;;;5103197;28;20299;-81
2022/12/20 02:48:27;;;;;;;10.15;6.07;;;-1.90;99.90;;;;;;5097194;28;20728;-80
2022/12/20 02:50:55;;;;;;;11.27;6.35;;;-2.00;99.90;;;;;;5112397;28;20031;-81
2022/12/20 02:53:22;;;;;;;14.93;8.70;;;-2.00;99.90;;;;;;5068173;28;20512;-80
2022/12/20 02:55:58;;;;;;;13.27;8.05;;;-2.00;99.90;;;;;;5112169;28;20024;-80
2022/12/20 02:59:19;;;;;;;13.25;8.80;;;-2.00;99.90;;;;;;5112719;28;20065;-80
2022/12/20 03:01:51;;;;;;;12.10;6.90;;;-2.00;99.90;;;;;;5051264;28;20028;-81
2022/12/20 03:04:21;;;;;;;11.80;7.40;;;-2.10;99.90;;;;;;5049147;28;20060;-80
2022/12/20 03:07:06;;;;;;;13.90;7.85;;;-2.10;99.90;;;;;;5064368;28;20393;-79
2022/12/20 03:09:36;;;;;;;14.48;7.45;;;-2.10;99.90;;;;;;5085688;28;20019;-81
2022/12/20 03:12:02;;;;;;;12.07;7.22;;;-2.20;99.90;;;;;;5116267;28;20419;-79
2022/12/20 03:14:28;;;;;;;13.48;7.95;;;-2.20;99.90;;;;;;5115995;28;20024;-80
2022/12/20 03:16:54;;;;;;;17.50;7.93;;;-2.20;99.90;;;;;;5097662;28;20020;-80
2022/12/20 03:19:20;;;;;;;12.45;7.80;;;-2.30;99.70;;;;;;5115641;28;20055;-79
2022/12/20 03:21:46;;;;;;;14.10;7.95;;;-2.30;99.40;;;;;;5108745;28;20046;-80
2022/12/20 03:24:12;;;;;;;15.98;8.00;;;-2.30;99.20;;;;;;5108245;28;20068;-80
2022/12/20 03:26:40;;;;;;;12.32;8.05;;;-2.30;99.00;;;;;;5097481;28;20020;-81
2022/12/20 03:29:06;;;;;;;13.93;8.20;;;-2.40;98.60;;;;;;5115573;28;20077;-80
2022/12/20 03:31:32;;;;;;;14.82;8.32;;;-2.40;98.60;;;;;;5101006;28;20019;-80
2022/12/20 03:33:58;;;;;;;12.35;8.32;;;-2.40;98.50;;;;;;5115633;28;20023;-79
2022/12/20 03:36:23;;;;;;;16.70;8.73;;;-2.40;98.40;;;;;;5096874;28;20020;-79
2022/12/20 03:38:50;;;;;;;15.35;9.77;;;-2.50;98.20;;;;;;5107257;28;20038;-79
2022/12/20 03:41:17;;;;;;;19.35;8.95;;;-2.50;98.00;;;;;;5115514;28;20590;-80
2022/12/20 03:43:43;;;;;;;16.58;10.02;;;-2.60;98.10;;;;;;5116698;28;20097;-79
2022/12/20 03:46:09;;;;;;;17.00;9.63;;;-2.60;98.20;;;;;;5115522;28;20104;-80
2022/12/20 03:48:34;;;;;;;18.77;9.82;;;-2.60;98.10;;;;;;5115088;28;20023;-78
2022/12/20 03:51:00;;;;;;;15.48;9.30;;;-2.60;97.80;;;;;;5115461;28;20414;-79
2022/12/20 03:53:26;;;;;;;16.85;10.50;;;-2.70;97.60;;;;;;5089213;28;20396;-80
2022/12/20 03:55:52;;;;;;;18.52;9.00;;;-2.70;97.40;;;;;;5115105;28;20042;-79
2022/12/20 03:58:18;;;;;;;15.45;8.25;;;-2.80;97.00;;;;;;5102465;28;20614;-81
2022/12/20 04:00:46;;;;;;;22.83;9.35;;;-2.80;97.60;;;;;;5074576;28;20027;-79
2022/12/20 04:03:12;;;;;;;12.95;9.70;;;-2.80;97.20;;;;;;5127140;28;20110;-79
2022/12/20 04:05:38;;;;;;;17.63;8.93;;;-2.80;96.90;;;;;;5101793;28;20074;-81
2022/12/20 04:08:04;;;;;;;17.38;9.35;;;-2.90;96.80;;;;;;5109540;28;20095;-80
2022/12/20 04:10:30;;;;;;;14.95;9.32;;;-2.90;96.60;;;;;;5115271;28;20135;-78
2022/12/20 04:12:56;;;;;;;18.23;9.77;;;-3.00;96.50;;;;;;5115066;28;20110;-80
2022/12/20 04:15:22;;;;;;;15.60;9.00;;;-3.00;96.40;;;;;;5115039;28;20024;-80
2022/12/20 04:17:48;;;;;;;19.30;9.43;;;-3.00;96.20;;;;;;5109174;28;20039;-79
2022/12/20 04:20:18;;;;;;;15.68;9.02;;;-3.10;96.00;;;;;;5114764;28;20038;-80
2022/12/20 04:22:48;;;;;;;19.35;10.52;;;-3.10;95.80;;;;;;5114584;28;20384;-80
2022/12/20 04:25:16;;;;;;;13.68;8.80;;;-3.10;95.70;;;;;;5114199;28;20073;-80
2022/12/20 04:27:42;;;;;;;18.33;9.20;;;-3.10;95.30;;;;;;5100452;28;20016;-80
2022/12/20 04:30:09;;;;;;;16.85;10.43;;;-3.10;94.80;;;;;;5114261;28;20379;-80
2022/12/20 04:32:35;;;;;;;15.85;9.57;;;-3.20;94.50;;;;;;5114834;28;20020;-81
2022/12/20 04:35:02;;;;;;;19.13;9.05;;;-3.20;94.40;;;;;;5092469;28;20504;-80
2022/12/20 04:37:29;;;;;;;18.98;11.20;;;-3.20;94.00;;;;;;5105340;28;20069;-82
2022/12/20 04:39:55;;;;;;;20.33;9.98;;;-3.30;94.20;;;;;;5097535;28;20433;-81
2022/12/20 04:42:22;;;;;;;14.98;9.70;;;-3.30;94.30;;;;;;5114362;28;20446;-80
2022/12/20 04:44:47;;;;;;;17.92;10.18;;;-3.30;94.30;;;;;;5114114;28;20078;-81
2022/12/20 04:47:13;;;;;;;18.45;10.82;;;-3.30;94.30;;;;;;5114124;28;20055;-81
2022/12/20 04:49:39;;;;;;;20.60;10.75;;;-3.30;94.20;;;;;;5114310;28;20106;-80
2022/12/20 04:54:49;;;;;;;16.50;10.82;;;-3.30;94.30;;;;;;5097108;28;20088;-81
2022/12/20 04:57:15;;;;;;;19.73;11.13;;;-3.30;94.30;;;;;;5100768;28;20484;-80
2022/12/20 04:59:41;;;;;;;19.88;10.40;;;-3.30;94.20;;;;;;5096298;28;20403;-80
2022/12/20 05:02:07;;;;;;;22.42;10.48;;;-3.30;94.00;;;;;;5106737;28;20391;-81
2022/12/20 05:04:33;;;;;;;18.83;9.70;;;-3.40;94.00;;;;;;5086229;28;20031;-80
2022/12/20 05:06:58;;;;;;;16.35;10.38;;;-3.40;93.80;;;;;;5110554;28;20103;-79
2022/12/20 05:09:24;;;;;;;21.35;9.45;;;-3.40;93.90;;;;;;5113848;28;20023;-80
2022/12/20 05:11:50;;;;;;;20.42;11.00;;;-3.40;93.90;;;;;;5114514;28;20020;-82
2022/12/20 05:14:16;;;;;;;17.55;9.30;;;-3.40;93.50;;;;;;5113848;28;20024;-80
2022/12/20 05:16:42;;;;;;;18.48;9.80;;;-3.50;93.50;;;;;;5091446;28;20020;-80
2022/12/20 05:19:07;;;;;;;21.40;11.75;;;-3.50;93.50;;;;;;5113459;28;20024;-80
2022/12/20 05:27:02;;;;;;;24.00;13.27;;;-3.50;93.80;;;;;;5089664;28;20061;-81
2022/12/20 05:29:28;;;;;;;19.88;12.35;;;-3.50;93.90;;;;;;5112822;28;20019;-80
2022/12/20 05:31:54;;;;;;;18.25;10.05;;;-3.60;93.80;;;;;;5114265;28;20161;-80
2022/12/20 05:34:20;;;;;;;15.73;10.65;;;-3.60;93.60;;;;;;5114866;28;20027;-80
2022/12/20 05:36:46;;;;;;;21.00;10.85;;;-3.60;94.30;;;;;;5113558;28;20034;-80
2022/12/20 05:39:12;;;;;;;19.50;11.10;;;-3.50;94.60;;;;;;5095772;28;20047;-81
2022/12/20 05:41:39;;;;;;;19.05;11.18;;;-3.50;94.30;;;;;;5110436;28;20016;-80
2022/12/20 05:44:06;;;;;;;20.75;13.38;;;-3.50;94.00;;;;;;5074483;28;20036;-80
2022/12/20 05:46:32;;;;;;;;;;;-3.50;94.20;;;;;;5108065;28;20388;-79
2022/12/20 05:48:58;;;;;;;17.38;9.82;;;-3.50;94.70;;;;;;5106575;28;19905;-83
2022/12/20 05:51:34;;;;;;;17.90;9.70;;;-3.50;94.80;;;;;;5092997;28;20031;-85
2022/12/20 05:54:00;;;;;;;22.15;10.75;;;-3.50;94.80;;;;;;5086355;28;20024;-81
2022/12/20 05:56:25;;;;;;;16.17;8.27;;;-3.50;94.30;;;;;;5095753;28;20039;-81
2022/12/20 05:58:51;;;;;;;18.17;9.98;;;-3.50;94.40;;;;;;5102001;28;20024;-80
2022/12/20 06:01:17;;;;;;;17.63;8.68;;;-3.50;94.70;;;;;;5099842;28;20074;-82
2022/12/20 06:03:44;;;;;;;30.15;10.48;;;-3.50;94.20;;;;;;5077182;28;20089;-82
2022/12/20 06:06:10;;;;;;;21.52;9.27;;;-3.50;94.00;;;;;;5097249;28;20023;-81
2022/12/20 06:08:36;;;;;;;16.83;8.98;;;-3.50;93.60;;;;;;5076333;28;20031;-80
2022/12/20 06:11:03;;;;;;;21.13;12.43;;;-3.50;93.60;;;;;;5094384;28;20038;-80
2022/12/20 06:13:30;;;;;;;23.10;10.40;;;-3.50;93.40;;;;;;5083775;28;20024;-81
2022/12/20 06:15:56;;;;;;;14.20;8.75;;;-3.50;93.40;;;;;;5077728;28;20416;-82
2022/12/20 06:18:22;;;;;;;21.52;9.95;;;-3.50;93.40;;;;;;5097405;28;20028;-80
2022/12/20 06:20:52;;;;;;;13.93;8.43;;;-3.50;92.90;;;;;;5076879;28;20333;-84
2022/12/20 06:23:19;;;;;;;17.67;7.82;;;-3.50;94.00;;;;;;5106562;28;20024;-83
2022/12/20 06:25:46;;;;;;;10.50;7.25;;;-3.50;93.60;;;;;;5082815;28;20377;-82
2022/12/20 06:28:11;;;;;;;13.35;8.07;;;-3.50;93.90;;;;;;5103160;28;20141;-84
2022/12/20 06:30:37;;;;;;;20.20;9.57;;;-3.40;94.20;;;;;;5095935;28;20475;-83
2022/12/20 06:33:03;;;;;;;12.02;7.07;;;-3.40;94.30;;;;;;5100395;28;20023;-85
2022/12/20 06:35:29;;;;;;;14.05;8.02;;;-3.40;94.10;;;;;;5103512;28;20028;-81
2022/12/20 06:37:56;;;;;;;11.27;6.68;;;-3.40;94.20;;;;;;5096954;28;20016;-81
2022/12/20 06:40:22;;;;;;;13.30;6.63;;;-3.40;93.80;;;;;;5097217;28;20027;-85
2022/12/20 06:42:49;;;;;;;12.68;6.05;;;-3.40;93.90;;;;;;5106746;28;20016;-83
2022/12/20 06:45:15;;;;;;;13.43;5.85;;;-3.40;94.00;;;;;;5099048;28;20028;-83
2022/12/20 06:47:41;;;;;;;9.10;4.90;;;-3.40;94.20;;;;;;5099329;28;20036;-83
2022/12/20 06:50:07;;;;;;;13.15;6.70;;;-3.40;94.20;;;;;;5095647;28;20396;-83
2022/12/20 06:52:33;;;;;;;11.30;6.35;;;-3.40;94.30;;;;;;5093575;28;20047;-83
2022/12/20 06:54:59;;;;;;;7.82;5.68;;;-3.40;94.40;;;;;;5098371;28;20020;-83
2022/12/20 06:57:25;;;;;;;14.00;7.03;;;-3.40;94.50;;;;;;5084493;28;20075;-82
2022/12/20 06:59:51;;;;;;;10.63;5.43;;;-3.40;94.10;;;;;;5081712;28;20028;-83
2022/12/20 07:02:17;;;;;;;13.75;7.32;;;-3.40;94.10;;;;;;5099373;28;20103;-85
2022/12/20 07:04:43;;;;;;;14.85;6.22;;;-3.40;93.80;;;;;;5095542;28;20070;-83
2022/12/20 07:07:08;;;;;;;10.23;4.93;;;-3.40;93.50;;;;;;5098182;28;20387;-84
2022/12/20 07:09:36;;;;;;;9.23;5.03;;;-3.40;93.80;;;;;;5081811;28;20385;-80
2022/12/20 07:12:02;;;;;;;10.50;6.10;;;-3.40;93.40;;;;;;5098425;28;20008;-81
2022/12/20 07:14:28;;;;;;;8.38;4.85;;;-3.40;92.40;;;;;;5108854;28;20059;-83
2022/12/20 07:16:54;;;;;;;9.40;5.28;;;-3.40;93.00;;;;;;5100998;28;20039;-82
2022/12/20 07:19:20;;;;;;;13.52;4.90;;;-3.40;92.90;;;;;;5105123;28;20035;-84
2022/12/20 07:21:47;;;;;;;12.13;5.03;;;-3.40;92.40;;;;;;5095517;28;20099;-83
2022/12/20 07:24:12;;;;;;;12.82;6.40;;;-3.40;92.90;;;;;;5104336;28;20044;-83
2022/12/20 07:26:38;;;;;;;9.57;5.70;;;-3.40;92.80;;;;;;5090511;28;20023;-83
2022/12/20 07:29:05;;;;;;;6.25;4.72;;;-3.40;92.50;;;;;;5099655;28;20434;-82
2022/12/20 07:31:31;;;;;;;10.23;5.75;;;-3.40;92.80;;;;;;5104767;28;20034;-81
2022/12/20 07:33:57;;;;;;;14.27;6.80;;;-3.50;92.70;;;;;;5085874;28;20136;-83
2022/12/20 07:36:23;;;;;;;11.13;7.10;;;-3.50;92.70;;;;;;5080227;28;20052;-83
2022/12/20 07:38:49;;;;;;;9.40;4.75;;;-3.50;92.50;;;;;;5085121;28;20024;-84
2022/12/20 07:41:19;;;;;;;14.35;6.55;;;-3.50;92.60;;;;;;5096745;28;20107;-83
2022/12/20 07:43:45;;;;;;;10.73;6.82;;;-3.50;92.50;;;;;;5103583;28;20092;-83
2022/12/20 07:46:13;;;;;;;10.98;5.60;;;-3.50;92.40;;;;;;5103610;28;20493;-83
2022/12/20 07:48:39;;;;;;;6.53;4.82;;;-3.40;92.70;;;;;;5089994;28;20024;-82
2022/12/20 07:51:16;;;;;;;7.53;4.55;;;-3.50;92.40;;;;;;5102265;28;20085;-84
2022/12/20 07:53:45;;;;;;;;;;;-3.40;92.90;;;;;;5080956;28;20026;-82
2022/12/20 07:56:12;;;;;;;9.82;5.93;;;-3.40;93.90;;;;;;5097689;28;19903;-81
2022/12/20 07:58:40;;;;;;;8.82;4.15;;;-3.40;93.70;;;;;;5125712;28;20020;-80
2022/12/20 08:01:09;;;;;;;8.25;4.25;;;-3.40;93.60;;;;;;5084170;28;20023;-83
2022/12/20 08:03:50;;;;;;;9.65;4.80;;;-3.30;93.90;;;;;;5092824;28;20028;-82
2022/12/20 08:06:17;;;;;;;9.98;4.45;;;-3.10;94.10;;;;;;5115719;28;20027;-82
2022/12/20 08:08:50;;;;;;;7.97;4.10;;;-2.90;93.70;;;;;;5116110;28;20103;-83
2022/12/20 08:11:17;;;;;;;5.90;3.88;;;-2.80;93.30;;;;;;5089458;28;20059;-82
2022/12/20 08:13:43;;;;;;;6.47;3.88;;;-2.60;93.60;;;;;;5097658;28;20024;-82
2022/12/20 08:16:09;;;;;;;9.13;4.18;;;-2.40;92.90;;;;;;5098073;28;20078;-82
2022/12/20 08:18:35;;;;;;;7.90;4.20;;;-2.30;91.50;;;;;;5076775;28;20028;-82
2022/12/20 08:21:01;;;;;;;8.65;4.10;;;-2.10;92.70;;;;;;5109820;28;20064;-82
2022/12/20 08:23:27;;;;;;;7.30;3.80;;;-1.80;92.90;;;;;;5101062;28;20040;-82
2022/12/20 08:25:53;;;;;;;6.20;3.45;;;-1.70;92.80;;;;;;5090677;28;20032;-82
2022/12/20 08:28:19;;;;;;;8.05;4.25;;;-1.50;92.00;;;;;;5081748;28;20107;-83
2022/12/20 08:30:45;;;;;;;6.78;4.47;;;-1.40;92.70;;;;;;5115715;28;20110;-81
2022/12/20 08:33:11;;;;;;;7.82;4.65;;;-1.30;90.90;;;;;;5116774;28;20020;-80
2022/12/20 08:35:37;;;;;;;7.75;4.07;;;-1.30;88.10;;;;;;5096615;28;20024;-82
2022/12/20 08:38:03;;;;;;;6.43;5.15;;;-1.40;87.20;;;;;;5082547;28;20024;-81
2022/12/20 08:40:28;;;;;;;8.38;4.80;;;-1.50;86.20;;;;;;5098010;28;20032;-82
2022/12/20 08:42:54;;;;;;;7.40;4.20;;;-1.60;85.70;;;;;;5089412;28;20023;-80
2022/12/20 08:45:20;;;;;;;9.88;5.75;;;-1.70;88.10;;;;;;5115275;28;20043;-80
2022/12/20 08:47:46;;;;;;;5.57;4.40;;;-1.80;87.90;;;;;;5096088;28;20020;-81
2022/12/20 08:50:12;;;;;;;9.52;5.05;;;-1.90;88.40;;;;;;5114646;28;20357;-82
2022/12/20 08:52:39;;;;;;;7.93;5.28;;;-2.00;85.00;;;;;;5096109;28;20027;-80
2022/12/20 08:55:05;;;;;;;5.85;4.30;;;-2.10;85.30;;;;;;5117017;28;20031;-82
2022/12/20 08:57:32;;;;;;;7.88;5.25;;;-2.10;88.00;;;;;;5093645;28;20108;-81
2022/12/20 08:59:58;;;;;;;9.63;5.63;;;-2.10;90.00;;;;;;5114303;28;20020;-82
2022/12/20 09:02:24;;;;;;;8.95;5.07;;;-2.20;89.90;;;;;;5092515;28;20389;-83
2022/12/20 09:04:50;;;;;;;7.72;5.07;;;-2.10;89.10;;;;;;5114790;28;20379;-80
2022/12/20 09:07:20;;;;;;;6.53;4.72;;;-2.10;87.90;;;;;;5119786;28;20039;-83
2022/12/20 09:09:46;;;;;;;6.78;3.90;;;-2.00;90.00;;;;;;5119500;28;20023;-82
2022/12/20 09:12:12;;;;;;;8.23;5.50;;;-1.80;89.80;;;;;;5098791;28;20097;-81
2022/12/20 09:14:38;;;;;;;13.00;7.88;;;-1.70;90.10;;;;;;5081169;28;20031;-81
2022/12/20 09:17:05;;;;;;;9.38;5.45;;;-1.50;88.20;;;;;;5104755;28;20421;-81
2022/12/20 09:19:58;;;;;;;11.02;7.53;;;-1.40;89.00;;;;;;5096440;28;20047;-81
2022/12/20 09:22:53;;;;;;;9.15;5.07;;;-1.20;86.60;;;;;;5096678;28;20057;-82
2022/12/20 09:28:23;;;;;;;9.90;5.38;;;-0.90;83.00;;;;;;5046069;28;20026;-82
2022/12/20 09:30:59;;;;;;;14.45;7.80;;;-0.80;83.80;;;;;;5044628;28;20075;-82
2022/12/20 09:33:31;;;;;;;18.65;8.65;;;-0.80;83.30;;;;;;5046833;28;20033;-80
2022/12/20 09:36:03;;;;;;;11.57;6.20;;;-0.80;80.70;;;;;;5032704;28;20053;-82
2022/12/20 09:39:02;;;;;;;11.02;6.88;;;-1.00;79.60;;;;;;5032757;28;20035;-83
2022/12/20 09:41:35;;;;;;;11.75;6.88;;;-1.10;79.80;;;;;;5044696;28;20024;-83
2022/12/20 09:44:12;;;;;;;7.60;5.68;;;-1.30;80.10;;;;;;5019254;28;20124;-82
2022/12/20 09:46:43;;;;;;;12.98;6.07;;;-1.40;84.70;;;;;;5045250;28;20037;-83
2022/12/20 09:49:18;;;;;;;18.92;10.48;;;-1.50;84.30;;;;;;5032265;28;20026;-81
2022/12/20 09:52:01;;;;;;;12.82;6.13;;;-1.60;83.30;;;;;;5033413;28;20037;-82
2022/12/20 09:54:55;;;;;;;16.02;7.45;;;-1.70;84.90;;;;;;5033545;28;20038;-82
2022/12/20 09:57:26;;;;;;;10.30;6.50;;;-1.80;83.80;;;;;;5035487;28;20026;-82
2022/12/20 09:59:55;;;;;;;13.30;6.68;;;-1.90;85.50;;;;;;5043495;28;20079;-82
2022/12/20 10:02:24;;;;;;;8.23;5.63;;;-2.00;87.50;;;;;;5037797;28;20453;-82
2022/12/20 10:04:51;;;;;;;11.23;5.47;;;-1.90;86.50;;;;;;5047270;28;20123;-82
2022/12/20 10:07:55;;;;;;;9.10;5.47;;;-1.70;89.20;;;;;;5076829;28;20120;-81
2022/12/20 10:10:44;;;;;;;14.35;7.10;;;-1.40;89.40;;;;;;5064015;28;20093;-83
2022/12/20 10:13:31;;;;;;;15.23;6.60;;;-0.90;89.20;;;;;;5064553;28;20034;-83
2022/12/20 10:16:27;;;;;;;23.83;9.77;;;-0.60;88.50;;;;;;5094056;28;20097;-84
2022/12/20 10:19:12;;;;;;;7.93;6.35;;;-0.20;87.90;;;;;;5074549;28;20397;-81
2022/12/20 10:21:55;;;;;;;22.88;12.10;;;0.00;88.50;;;;;;5089877;28;20388;-81
2022/12/20 10:24:29;;;;;;;25.63;11.32;;;0.00;84.50;;;;;;5097546;28;20048;-82
2022/12/20 10:27:18;;;;;;;15.98;6.97;;;0.10;83.10;;;;;;5113710;28;20097;-83
2022/12/20 10:29:45;;;;;;;12.30;6.43;;;0.20;83.70;;;;;;5113745;28;20106;-82
2022/12/20 10:32:17;;;;;;;11.82;6.70;;;0.10;86.10;;;;;;5113481;28;20102;-83
2022/12/20 10:35:17;;;;;;;9.02;6.00;;;0.00;81.00;;;;;;5094780;28;20055;-82
2022/12/20 10:37:56;;;;;;;8.13;5.15;;;-0.20;78.90;;;;;;5112585;28;20484;-82
2022/12/20 10:40:37;;;;;;;11.30;6.38;;;-0.40;77.90;;;;;;5103127;28;20020;-83
2022/12/20 10:43:05;;;;;;;11.82;6.80;;;-0.60;78.60;;;;;;5095110;28;20112;-81
2022/12/20 10:45:54;;;;;;;11.90;6.03;;;-0.80;78.40;;;;;;5113444;28;20032;-80
2022/12/20 10:48:30;;;;;;;8.95;4.43;;;-1.00;79.50;;;;;;5079201;28;20509;-80
2022/12/20 10:50:58;;;;;;;7.50;4.87;;;-1.20;81.30;;;;;;5101587;28;20031;-81
2022/12/20 10:53:26;;;;;;;10.50;5.30;;;-1.30;80.30;;;;;;5095134;28;20038;-81
2022/12/20 10:56:19;;;;;;;9.60;6.03;;;-1.40;81.20;;;;;;5083325;28;20027;-82
2022/12/20 10:59:01;;;;;;;12.65;5.85;;;-1.50;81.80;;;;;;5097195;28;20330;-79
2022/12/20 11:01:35;;;;;;;8.13;6.18;;;-1.60;84.30;;;;;;5086862;28;20035;-82
2022/12/20 11:04:03;;;;;;;13.75;7.57;;;-1.70;82.50;;;;;;5111914;28;20023;-82
2022/12/20 11:06:42;;;;;;;8.05;5.10;;;-1.80;81.50;;;;;;5094035;28;20032;-81
2022/12/20 11:09:29;;;;;;;7.55;4.93;;;-1.90;82.70;;;;;;5113056;28;20098;-81
2022/12/20 11:11:58;;;;;;;12.37;5.10;;;-2.00;82.20;;;;;;5116761;28;20024;-82
2022/12/20 11:14:25;;;;;;;8.13;5.47;;;-2.10;84.60;;;;;;5112314;28;20020;-81
2022/12/20 11:16:52;;;;;;;10.43;4.95;;;-2.10;84.90;;;;;;5116837;28;20081;-80
2022/12/20 11:19:40;;;;;;;9.50;4.97;;;-2.10;83.40;;;;;;5112366;28;20023;-81
2022/12/20 11:22:14;;;;;;;11.48;5.60;;;-2.20;82.60;;;;;;5112004;28;20423;-82
2022/12/20 11:24:47;;;;;;;8.98;5.35;;;-2.20;84.60;;;;;;5111613;28;20105;-81
2022/12/20 11:27:25;;;;;;;9.68;6.10;;;-2.20;84.40;;;;;;5094467;28;20016;-83
2022/12/20 11:30:14;;;;;;;7.40;5.05;;;-2.20;86.30;;;;;;5115815;28;20393;-81
2022/12/20 11:32:53;;;;;;;12.20;6.28;;;-2.20;86.90;;;;;;5077510;28;20028;-81
2022/12/20 11:35:31;;;;;;;6.85;4.95;;;-2.20;88.20;;;;;;5087677;28;20565;-80
2022/12/20 11:38:09;;;;;;;8.38;4.70;;;-2.30;87.60;;;;;;5115707;28;20019;-83
2022/12/20 11:41:09;;;;;;;9.05;5.38;;;-2.30;86.20;;;;;;5084756;28;20173;-81
2022/12/20 11:43:48;;;;;;;8.25;4.72;;;-2.40;85.80;;;;;;5104293;28;20028;-82
2022/12/20 11:46:27;;;;;;;6.38;4.05;;;-2.40;87.10;;;;;;5098288;28;20492;-82
2022/12/20 11:49:39;;;;;;;8.45;5.05;;;-2.40;87.50;;;;;;5092463;28;20024;-82
2022/12/20 11:52:27;;;;;;;10.50;5.65;;;-2.50;86.00;;;;;;5096539;28;20376;-83
2022/12/20 11:55:28;;;;;;;11.63;6.22;;;-2.60;86.10;;;;;;5109108;28;20115;-81
2022/12/20 11:58:15;;;;;;;11.10;5.35;;;-2.60;86.90;;;;;;5079002;28;20055;-82
2022/12/20 12:00:49;;;;;;;;;;;-2.60;86.90;;;;;;5116379;28;20070;-80
2022/12/20 12:03:55;;;;;;;8.50;4.90;;;-2.70;89.50;;;;;;5119493;28;19974;-83
2022/12/20 12:06:45;;;;;;;12.38;6.93;;;-2.70;90.00;;;;;;5111098;28;20046;-81
2022/12/20 12:09:21;;;;;;;10.48;4.35;;;-2.80;90.00;;;;;;5116242;28;20107;-82
2022/12/20 12:11:52;;;;;;;9.30;5.28;;;-2.80;89.90;;;;;;5115933;28;20027;-82
2022/12/20 12:14:32;;;;;;;11.25;5.60;;;-2.90;90.00;;;;;;5115703;28;20016;-83
2022/12/20 12:17:08;;;;;;;10.60;7.43;;;-3.00;88.80;;;;;;5116092;28;20396;-82
2022/12/20 12:19:39;;;;;;;12.13;4.70;;;-3.00;89.10;;;;;;5083106;28;20024;-83
2022/12/20 12:22:13;;;;;;;12.65;5.43;;;-3.10;89.40;;;;;;5096775;28;20015;-81
2022/12/20 12:24:44;;;;;;;8.95;5.32;;;-3.10;89.20;;;;;;5101814;28;20182;-80
2022/12/20 12:27:25;;;;;;;11.75;7.50;;;-3.20;89.70;;;;;;5096778;28;20419;-81
2022/12/20 12:29:55;;;;;;;11.40;7.18;;;-3.20;89.00;;;;;;5081408;28;20020;-81
2022/12/20 12:32:33;;;;;;;13.35;6.20;;;-3.30;88.80;;;;;;5115400;28;20027;-81
2022/12/20 12:35:10;;;;;;;16.50;8.60;;;-3.30;88.70;;;;;;5104210;28;20048;-81
2022/12/20 12:37:54;;;;;;;11.18;6.55;;;-3.30;89.30;;;;;;5087302;28;20023;-82
2022/12/20 12:40:53;;;;;;;7.72;5.07;;;-3.30;89.70;;;;;;5114624;28;20024;-81
2022/12/20 12:43:47;;;;;;;12.95;7.82;;;-3.40;89.10;;;;;;5115194;28;20019;-82
2022/12/20 12:46:21;;;;;;;12.10;6.13;;;-3.40;89.20;;;;;;5115940;28;20038;-82
2022/12/20 12:49:00;;;;;;;12.32;7.03;;;-3.50;90.10;;;;;;5097387;28;20031;-82
2022/12/20 12:51:31;;;;;;;16.60;6.22;;;-3.50;89.80;;;;;;5102807;28;20032;-82
2022/12/20 12:54:43;;;;;;;13.55;6.97;;;-3.50;90.70;;;;;;5100088;28;20012;-83
2022/12/20 12:57:17;;;;;;;10.05;5.93;;;-3.50;90.80;;;;;;5112073;28;20043;-84
2022/12/20 12:59:48;;;;;;;9.93;6.25;;;-3.50;90.90;;;;;;5114537;28;20082;-83
2022/12/20 13:02:14;;;;;;;9.63;5.93;;;-3.60;91.10;;;;;;5114539;28;20016;-82
2022/12/20 13:05:00;;;;;;;15.93;6.82;;;-3.50;91.00;;;;;;5086202;28;20136;-84
2022/12/20 13:07:32;;;;;;;11.80;5.40;;;-3.60;90.40;;;;;;5076302;28;20124;-83
2022/12/20 13:10:07;;;;;;;8.88;4.55;;;-3.60;91.10;;;;;;5095959;28;20036;-83
2022/12/20 13:12:36;;;;;;;13.75;6.90;;;-3.60;92.50;;;;;;5103472;28;20496;-83